Time;durP1;ratioP1;P1;durP2;ratioP2;P2;SDS_P1;SDS_P2;PMS_P1;PMS_P2;Temp;Humidity;BMP_temperature;BMP_pressure;BME280_temperature;BME280_humidity;BME280_pressure;Samples;Min_cycle;Max_cycle;Signal;HPM_P1;HPM_P2
2021/05/06 00:01:06;;;;;;;2.44;1.04;;;;;;;14.19;48.76;98762.11;339222;156;859012;-59
2021/05/06 00:01:52;;;;;;;3.59;1.37;;;;;;;14.14;49.09;98775.30;338841;157;858232;-60
2021/05/06 00:05:46;;;;;;;3.25;1.42;;;;;;;14.07;48.88;98777.33;358744;148;857922;-60
2021/05/06 00:08:06;;;;;;;3.82;1.88;;;;;;;;;;358560;147;860556;-60
2021/05/06 00:14:29;;;;;;;3.54;1.64;;;;;;;;;;360036;145;857787;-59
2021/05/06 00:30:13;;;;;;;6.16;2.11;;;;;;;;;;358998;147;858860;-59
2021/05/06 00:31:30;;;;;;;4.23;1.36;;;;;;;;;;355824;148;857938;-60
2021/05/06 00:32:14;;;;;;;6.53;1.40;;;;;;;;;;357909;150;857826;-60
2021/05/06 00:33:15;;;;;;;5.91;1.39;;;;;;;;;;358543;147;858795;-59
2021/05/06 00:34:16;;;;;;;4.29;1.19;;;;;;;;;;357380;149;858368;-59
2021/05/06 00:35:18;;;;;;;1.73;0.83;;;;;;;;;;357859;148;866877;-59
2021/05/06 00:36:20;;;;;;;2.87;1.09;;;;;;;;;;359197;148;859929;-59
2021/05/06 00:37:21;;;;;;;1.81;0.70;;;;;;;;;;359090;148;864852;-59
2021/05/06 00:38:29;;;;;;;3.74;1.10;;;;;;;;;;359723;147;857386;-59
2021/05/06 00:39:35;;;;;;;1.92;1.04;;;;;;;;;;358678;147;865142;-60
2021/05/06 00:46:09;;;;;;;3.16;1.14;;;;;;;;;;359787;147;865078;-60
2021/05/06 00:56:18;;;;;;;1.87;1.11;;;;;;;;;;325913;162;859653;-60
2021/05/06 00:57:13;;;;;;;5.44;1.07;;;;;;;;;;329532;159;859652;-59
2021/05/06 01:02:54;;;;;;;4.59;1.46;;;;;;;;;;353684;150;857498;-60
2021/05/06 01:04:11;;;;;;;2.23;1.06;;;;;;;;;;351764;152;859525;-60
2021/05/06 01:05:08;;;;;;;4.07;1.68;;;;;;;;;;350479;149;859258;-59
2021/05/06 01:06:12;;;;;;;2.30;1.10;;;;;;;;;;352257;152;858989;-59
2021/05/06 01:07:26;;;;;;;3.79;1.26;;;;;;;;;;352552;150;857292;-59
2021/05/06 01:08:24;;;;;;;4.92;1.28;;;;;;;;;;349930;150;858661;-59
2021/05/06 01:09:28;;;;;;;4.64;1.31;;;;;;;;;;353853;150;858591;-59
2021/05/06 01:10:40;;;;;;;4.76;1.18;;;;;;;;;;355766;150;857210;-60
2021/05/06 01:11:43;;;;;;;3.28;1.32;;;;;;;;;;353585;150;859212;-59
2021/05/06 01:12:43;;;;;;;1.58;1.24;;;;;;;;;;354316;150;857359;-59
2021/05/06 01:13:47;;;;;;;2.86;1.37;;;;;;;;;;353906;150;858821;-60
2021/05/06 01:14:48;;;;;;;7.36;1.37;;;;;;;;;;353356;152;857332;-59
2021/05/06 01:15:50;;;;;;;3.12;1.36;;;;;;;;;;353578;152;857453;-59
2021/05/06 01:16:52;;;;;;;7.09;1.54;;;;;;;;;;354208;150;860005;-59
2021/05/06 01:17:53;;;;;;;5.97;1.29;;;;;;;;;;353600;152;864809;-60
2021/05/06 01:18:55;;;;;;;4.29;1.92;;;;;;;;;;354583;150;864747;-60
2021/05/06 01:19:56;;;;;;;5.98;1.51;;;;;;;;;;355578;150;857269;-59
2021/05/06 01:21:00;;;;;;;5.13;1.64;;;;;;;;;;353216;150;865675;-59
2021/05/06 01:22:01;;;;;;;2.86;1.22;;;;;;;;;;353041;150;865502;-59
2021/05/06 01:23:03;;;;;;;4.12;0.96;;;;;;;;;;353611;151;857204;-59
2021/05/06 01:24:05;;;;;;;4.19;1.16;;;;;;;;;;353198;150;857653;-59
2021/05/06 01:25:07;;;;;;;2.81;1.41;;;;;;;;;;354129;150;865060;-59
2021/05/06 01:26:15;;;;;;;4.87;1.30;;;;;;;;;;353564;150;858777;-60
2021/05/06 01:27:22;;;;;;;3.52;1.22;;;;;;;;;;354070;150;858502;-60
2021/05/06 01:28:24;;;;;;;2.44;1.15;;;;;;;;;;352340;152;856973;-60
2021/05/06 01:29:29;;;;;;;2.63;1.12;;;;;;;;;;353569;150;857214;-59
2021/05/06 01:30:42;;;;;;;1.82;1.07;;;;;;;;;;351014;150;864416;-61
2021/05/06 01:31:39;;;;;;;2.73;0.99;;;;;;;;;;350451;152;866087;-58
2021/05/06 01:32:45;;;;;;;6.10;1.31;;;;;;;;;;353006;150;859221;-58
2021/05/06 01:33:51;;;;;;;5.59;1.31;;;;;;;;;;353408;151;859829;-59
2021/05/06 01:35:01;;;;;;;7.28;1.11;;;;;;;;;;353597;150;860268;-60
2021/05/06 01:36:07;;;;;;;2.64;0.98;;;;;;;;;;353241;151;859603;-60
2021/05/06 01:37:13;;;;;;;3.25;1.12;;;;;;;;;;352424;151;857370;-61
2021/05/06 01:38:33;;;;;;;2.64;1.06;;;;;;;;;;353263;150;859484;-59
2021/05/06 01:41:54;;;;;;;2.31;1.12;;;;;;;;;;351659;152;857417;-59
2021/05/06 01:42:58;;;;;;;1.48;1.02;;;;;;;;;;352781;151;865773;-59
2021/05/06 01:45:16;;;;;;;3.91;1.22;;;;;;;;;;352965;152;857282;-59
2021/05/06 01:47:11;;;;;;;1.24;0.88;;;;;;;;;;353440;152;857309;-59
2021/05/06 02:00:38;;;;;;;2.43;1.11;;;;;;;;;;358851;147;857357;-58
2021/05/06 02:01:41;;;;;;;2.55;1.36;;;;;;;;;;358754;148;857643;-59
2021/05/06 02:02:46;;;;;;;2.44;1.01;;;;;;;;;;357546;149;857786;-58
2021/05/06 02:03:47;;;;;;;3.81;1.20;;;;;;;;;;354402;149;864866;-61
2021/05/06 02:04:49;;;;;;;2.74;1.24;;;;;;;;;;358613;147;857632;-59
2021/05/06 02:05:51;;;;;;;4.72;1.10;;;;;;;;;;358502;147;864757;-61
2021/05/06 02:06:53;;;;;;;1.57;1.16;;;;;;;;;;359026;147;864827;-58
2021/05/06 02:07:54;;;;;;;3.92;1.19;;;;;;;;;;359303;147;857722;-60
2021/05/06 02:08:56;;;;;;;2.65;1.26;;;;;;;;;;359439;149;857248;-58
2021/05/06 02:09:58;;;;;;;3.91;1.46;;;;;;;;;;360075;147;857997;-60
2021/05/06 02:11:01;;;;;;;1.18;0.89;;;;;;;;;;359377;147;857978;-59
2021/05/06 02:12:03;;;;;;;5.99;1.91;;;;;;;;;;359679;149;857831;-59
2021/05/06 02:13:05;;;;;;;1.91;1.13;;;;;;;;;;359820;147;857020;-59
2021/05/06 02:14:08;;;;;;;3.58;1.49;;;;;;;;;;359851;147;858458;-59
2021/05/06 02:15:13;;;;;;;2.16;1.42;;;;;;;;;;359574;147;864735;-60
2021/05/06 02:16:19;;;;;;;2.55;1.27;;;;;;;;;;360149;147;858749;-59
2021/05/06 02:17:19;;;;;;;1.82;1.39;;;;;;;;;;359167;149;857329;-59
2021/05/06 02:18:22;;;;;;;6.29;2.19;;;;;;;;;;360976;147;857229;-60
2021/05/06 02:19:31;;;;;;;3.84;1.30;;;;;;;;;;359569;147;858899;-59
2021/05/06 02:20:27;;;;;;;2.91;1.49;;;;;;;;;;357611;148;859067;-59
2021/05/06 02:21:29;;;;;;;4.37;1.09;;;;;;;;;;359490;147;857318;-59
2021/05/06 02:22:30;;;;;;;3.01;1.24;;;;;;;;;;355449;149;859539;-60
2021/05/06 02:23:33;;;;;;;3.87;1.52;;;;;;;;;;359267;147;864808;-59
2021/05/06 02:24:36;;;;;;;3.20;1.29;;;;;;;;;;359797;149;864368;-59
2021/05/06 02:25:38;;;;;;;3.71;1.39;;;;;;;;;;357265;149;857304;-60
2021/05/06 02:26:41;;;;;;;5.35;1.14;;;;;;;;;;358126;147;857727;-59
2021/05/06 02:27:42;;;;;;;3.26;1.49;;;;;;;;;;359309;149;857428;-59
2021/05/06 02:28:44;;;;;;;3.39;1.56;;;;;;;;;;358944;149;864682;-59
2021/05/06 02:29:47;;;;;;;1.89;1.42;;;;;;;;;;351875;150;857290;-59
2021/05/06 02:30:50;;;;;;;3.06;1.59;;;;;;;;;;352228;147;859645;-58
2021/05/06 02:31:51;;;;;;;2.80;1.15;;;;;;;;;;358668;147;864650;-58
2021/05/06 02:32:53;;;;;;;4.39;1.32;;;;;;;;;;364531;147;857229;-59
2021/05/06 02:33:55;;;;;;;2.51;1.21;;;;;;;;;;363718;148;858937;-59
2021/05/06 02:34:57;;;;;;;3.82;1.46;;;;;;;;;;359750;147;865958;-59
2021/05/06 02:35:58;;;;;;;4.81;1.50;;;;;;;;;;359835;149;858171;-60
2021/05/06 02:37:00;;;;;;;6.61;1.54;;;;;;;;;;361761;147;858314;-58
2021/05/06 02:38:02;;;;;;;5.85;1.25;;;;;;;;;;359619;147;864961;-59
2021/05/06 02:39:04;;;;;;;4.33;1.24;;;;;;;;;;359388;149;857389;-59
2021/05/06 02:40:06;;;;;;;5.33;1.30;;;;;;;;;;359995;147;864812;-58
2021/05/06 02:41:08;;;;;;;2.96;1.54;;;;;;;;;;359830;149;857328;-58
2021/05/06 02:42:09;;;;;;;3.24;1.48;;;;;;;;;;361935;148;858619;-59
2021/05/06 02:43:11;;;;;;;2.39;1.11;;;;;;;;;;359735;147;857570;-59
2021/05/06 02:44:13;;;;;;;2.54;1.39;;;;;;;;;;357032;149;857377;-59
2021/05/06 02:45:15;;;;;;;3.96;1.20;;;;;;;;;;360828;147;866768;-59
2021/05/06 02:46:17;;;;;;;1.99;1.20;;;;;;;;;;358565;149;866382;-58
2021/05/06 02:47:18;;;;;;;1.79;1.28;;;;;;;;;;358830;147;858970;-58
2021/05/06 02:48:20;;;;;;;4.19;1.56;;;;;;;;;;359998;147;857476;-58
2021/05/06 02:49:22;;;;;;;1.74;1.30;;;;;;;;;;360391;149;857732;-57
2021/05/06 02:50:26;;;;;;;3.81;1.50;;;;;;;;;;358774;148;857370;-56
2021/05/06 02:51:35;;;;;;;2.75;1.50;;;;;;;;;;360542;147;857753;-56
2021/05/06 02:52:42;;;;;;;5.13;1.48;;;;;;;;;;358678;149;867045;-56
2021/05/06 02:53:45;;;;;;;6.66;1.69;;;;;;;;;;358743;147;857470;-57
2021/05/06 02:54:45;;;;;;;2.80;1.36;;;;;;;;;;356743;149;857405;-57
2021/05/06 02:56:11;;;;;;;2.34;1.26;;;;;;;;;;358330;148;857263;-56
2021/05/06 02:56:58;;;;;;;3.81;1.45;;;;;;;;;;349861;152;858638;-58
2021/05/06 02:58:04;;;;;;;2.25;1.45;;;;;;;;;;356544;148;857307;-57
2021/05/06 02:59:36;;;;;;;2.23;1.02;;;;;;;;;;358227;148;857352;-57
2021/05/06 03:03:03;;;;;;;2.69;1.27;;;;;;;;;;357769;150;857307;-57
2021/05/06 03:04:05;;;;;;;1.74;1.23;;;;;;;;;;360368;148;857723;-56
2021/05/06 03:05:07;;;;;;;2.29;1.58;;;;;;;;;;357333;147;858695;-57
2021/05/06 03:06:18;;;;;;;2.94;1.33;;;;;;;;;;362660;147;857743;-58
2021/05/06 03:07:17;;;;;;;2.02;1.14;;;;;;;;;;359479;148;866658;-57
2021/05/06 03:08:29;;;;;;;4.20;1.54;;;;;;;;;;355686;150;859159;-56
2021/05/06 03:09:37;;;;;;;2.81;1.51;;;;;;;;;;355705;148;858267;-58
2021/05/06 03:11:50;;;;;;;6.87;1.48;;;;;;;;;;356621;150;858866;-58
2021/05/06 03:22:58;;;;;;;3.91;1.81;;;;;;;;;;359295;148;857712;-59
2021/05/06 03:23:59;;;;;;;2.47;1.35;;;;;;;;;;358808;148;861767;-58
2021/05/06 03:25:06;;;;;;;6.61;1.15;;;;;;;;;;358947;149;857331;-59
2021/05/06 03:26:05;;;;;;;1.37;0.95;;;;;;;;;;356399;147;859076;-59
2021/05/06 03:27:09;;;;;;;3.14;1.26;;;;;;;;;;359367;148;857954;-59
2021/05/06 03:28:13;;;;;;;2.46;1.29;;;;;;;;;;359675;148;864941;-59
2021/05/06 03:29:36;;;;;;;2.99;1.32;;;;;;;;;;357145;148;857468;-59
2021/05/06 03:31:38;;;;;;;3.02;1.56;;;;;;;;;;357761;147;859077;-60
2021/05/06 03:35:29;;;;;;;1.81;1.33;;;;;;;;;;359841;147;864778;-59
2021/05/06 03:41:43;;;;;;;2.56;1.74;;;;;;;;;;356475;149;864502;-60
2021/05/06 03:42:45;;;;;;;5.06;1.71;;;;;;;;;;354222;148;859630;-60
2021/05/06 03:45:22;;;;;;;3.08;1.52;;;;;;;;;;354156;150;857954;-59
2021/05/06 03:49:13;;;;;;;4.20;1.54;;;;;;;;;;359039;150;859643;-61
2021/05/06 04:03:27;;;;;;;2.89;1.54;;;;;;;;;;358863;148;859145;-61
2021/05/06 04:16:14;;;;;;;;;;;;;;;;;;361819;150;858483;-65
2021/05/06 04:17:10;;;;;;;4.09;1.16;;;;;;;;;;358558;148;858030;-61
2021/05/06 04:21:29;;;;;;;4.02;1.15;;;;;;;;;;358494;150;857394;-63
2021/05/06 04:26:56;;;;;;;2.34;1.41;;;;;;;;;;357165;148;857258;-60
2021/05/06 04:27:58;;;;;;;2.83;1.18;;;;;;;;;;354736;151;857173;-64
2021/05/06 04:36:52;;;;;;;;;;;;;;;;;;360054;149;856708;-63
2021/05/06 04:37:44;;;;;;;1.77;1.02;;;;;;;;;;354207;149;857324;-61
2021/05/06 04:38:46;;;;;;;2.21;1.17;;;;;;;;;;356108;149;857353;-60
2021/05/06 04:39:54;;;;;;;2.18;0.70;;;;;;;;;;358458;149;857374;-59
2021/05/06 04:42:18;;;;;;;2.09;1.11;;;;;;;;;;354152;149;857251;-59
2021/05/06 04:50:19;;;;;;;3.87;1.42;;;;;;;;;;354030;149;858627;-60
2021/05/06 04:54:36;;;;;;;2.44;1.23;;;;;;;;;;357053;149;857503;-63
2021/05/06 04:55:40;;;;;;;4.10;1.41;;;;;;;;;;354811;151;857956;-62
2021/05/06 05:05:28;;;;;;;1.78;0.97;;;;;;;;;;348596;154;864455;-62
2021/05/06 05:06:41;;;;;;;4.27;1.51;;;;;;;;;;352665;149;858867;-62
2021/05/06 05:07:42;;;;;;;3.08;1.36;;;;;;;;;;355228;149;864508;-62
2021/05/06 05:08:53;;;;;;;3.22;1.32;;;;;;;;;;354518;150;857297;-61
2021/05/06 05:13:51;;;;;;;4.11;1.72;;;;;;;;;;354139;149;857284;-61
2021/05/06 05:15:06;;;;;;;4.12;1.23;;;;;;;;;;354676;149;858777;-61
2021/05/06 05:23:43;;;;;;;3.83;1.37;;;;;;;;;;353629;148;857791;-63
2021/05/06 05:25:46;;;;;;;3.63;1.40;;;;;;;;;;352499;151;864612;-61
2021/05/06 05:26:48;;;;;;;5.78;1.43;;;;;;;;;;350956;151;859166;-62
2021/05/06 05:27:49;;;;;;;4.87;1.65;;;;;;;;;;350168;151;858676;-62
2021/05/06 05:28:51;;;;;;;4.71;1.44;;;;;;;;;;350919;151;857383;-62
2021/05/06 05:29:52;;;;;;;4.11;1.06;;;;;;;;;;353147;151;858204;-63
2021/05/06 05:30:54;;;;;;;3.59;1.82;;;;;;;;;;350329;151;857382;-62
2021/05/06 05:31:57;;;;;;;3.46;1.48;;;;;;;;;;351335;151;857372;-62
2021/05/06 05:32:59;;;;;;;7.55;1.77;;;;;;;;;;346700;152;858689;-62
2021/05/06 05:34:16;;;;;;;2.15;1.21;;;;;;;;;;347937;151;866121;-62
2021/05/06 05:35:29;;;;;;;3.09;1.37;;;;;;;;;;350943;151;857766;-62
2021/05/06 05:36:16;;;;;;;1.68;1.19;;;;;;;;;;344574;151;857747;-60
2021/05/06 05:37:18;;;;;;;2.58;1.30;;;;;;;;;;349752;152;857395;-62
2021/05/06 05:39:40;;;;;;;3.57;1.56;;;;;;;;;;351174;150;859599;-62
2021/05/06 05:41:02;;;;;;;2.69;1.24;;;;;;;;;;350613;151;857347;-61
2021/05/06 05:43:11;;;;;;;4.99;1.71;;;;;;;;;;351329;151;857137;-62
2021/05/06 05:55:25;;;;;;;5.75;2.06;;;;;;;;;;352033;152;857380;-63
2021/05/06 05:56:27;;;;;;;5.71;1.26;;;;;;;;;;350234;151;859360;-62
2021/05/06 05:57:29;;;;;;;6.81;1.89;;;;;;;;;;349128;151;857345;-63
2021/05/06 05:58:30;;;;;;;3.24;1.90;;;;;;;;;;350771;152;857302;-63
2021/05/06 05:59:32;;;;;;;4.64;1.74;;;;;;;;;;348266;151;858864;-63
2021/05/06 06:00:35;;;;;;;6.86;2.04;;;;;;;;;;351307;152;858156;-63
2021/05/06 06:01:37;;;;;;;4.37;1.84;;;;;;;;;;352641;152;857850;-63
2021/05/06 06:02:38;;;;;;;3.42;1.56;;;;;;;;;;350374;151;865450;-63
2021/05/06 06:03:40;;;;;;;2.40;1.34;;;;;;;;;;347882;154;857618;-63
2021/05/06 06:04:42;;;;;;;2.57;1.54;;;;;;;;;;346858;151;865209;-64
2021/05/06 06:05:43;;;;;;;7.68;2.10;;;;;;;;;;350409;152;859615;-63
2021/05/06 06:06:45;;;;;;;4.28;1.76;;;;;;;;;;346478;155;864848;-63
2021/05/06 06:07:46;;;;;;;4.41;1.82;;;;;;;;;;349274;151;864869;-63
2021/05/06 06:08:48;;;;;;;3.79;1.71;;;;;;;;;;349468;151;857362;-63
2021/05/06 06:09:50;;;;;;;6.02;2.31;;;;;;;;;;351925;152;857308;-63
2021/05/06 06:10:52;;;;;;;4.29;2.11;;;;;;;;;;350369;151;857329;-63
2021/05/06 06:11:53;;;;;;;5.95;2.92;;;;;;;;;;351027;152;864800;-63
2021/05/06 06:12:55;;;;;;;5.66;1.85;;;;;;;;;;349252;151;857445;-63
2021/05/06 06:13:57;;;;;;;5.68;1.97;;;;;;;;;;350324;152;858884;-63
2021/05/06 06:15:01;;;;;;;7.24;2.20;;;;;;;;;;346553;155;857337;-62
2021/05/06 06:16:12;;;;;;;3.27;1.84;;;;;;;;;;350733;151;857372;-63
2021/05/06 06:17:12;;;;;;;8.62;2.61;;;;;;;;;;349479;152;859639;-62
2021/05/06 06:18:18;;;;;;;6.43;2.15;;;;;;;;;;349141;151;858251;-63
2021/05/06 06:19:20;;;;;;;5.72;2.55;;;;;;;;;;346420;155;857430;-63
2021/05/06 06:20:21;;;;;;;3.67;2.12;;;;;;;;;;346514;155;859173;-63
2021/05/06 06:21:39;;;;;;;8.54;1.83;;;;;;;;;;350923;151;857238;-63
2021/05/06 06:22:32;;;;;;;7.67;2.64;;;;;;;;;;350627;152;858250;-62
2021/05/06 06:23:34;;;;;;;4.29;2.23;;;;;;;;;;350629;150;859665;-62
2021/05/06 06:24:36;;;;;;;9.51;2.01;;;;;;;;;;351721;150;866646;-63
2021/05/06 06:25:37;;;;;;;3.75;2.01;;;;;;;;;;350932;152;866708;-61
2021/05/06 06:34:09;;;;;;;4.22;2.43;;;;;;;14.13;52.71;98912.42;408366;130;857197;-62
2021/05/06 06:35:11;;;;;;;12.36;2.91;;;;;;;13.94;53.12;98919.25;396875;133;860594;-62
2021/05/06 06:36:13;;;;;;;11.13;3.21;;;;;;;13.94;53.33;98921.86;402767;133;864983;-62
2021/05/06 06:37:15;;;;;;;7.89;2.80;;;;;;;13.85;54.05;98916.09;395554;134;857307;-61
2021/05/06 06:38:17;;;;;;;4.77;2.43;;;;;;;13.73;55.25;98924.34;393450;133;858737;-61
2021/05/06 06:39:19;;;;;;;3.38;2.13;;;;;;;13.65;55.77;98941.98;392822;136;856691;-61
2021/05/06 06:40:21;;;;;;;4.73;3.13;;;;;;;13.20;59.61;98946.13;394892;133;867006;-60
2021/05/06 06:41:23;;;;;;;5.51;3.41;;;;;;;13.15;59.42;98938.52;394388;133;857272;-61
2021/05/06 06:42:25;;;;;;;5.44;3.04;;;;;;;12.98;60.70;98936.48;390284;135;864785;-60
2021/05/06 06:43:27;;;;;;;5.14;3.26;;;;;;;12.98;60.70;98936.48;392115;133;864779;-60
2021/05/06 06:44:30;;;;;;;5.83;3.36;;;;;;;12.97;60.83;98942.58;390522;133;865565;-61
2021/05/06 06:45:32;;;;;;;6.06;3.09;;;;;;;13.03;60.75;98947.56;389420;138;866079;-61
2021/05/06 06:46:35;;;;;;;3.66;2.71;;;;;;;13.04;61.27;98944.06;394013;133;857125;-61
2021/05/06 06:47:37;;;;;;;5.75;3.19;;;;;;;;;;393067;135;857913;-61
2021/05/06 06:48:38;;;;;;;5.31;3.26;;;;;;;;;;394925;135;865272;-60
2021/05/06 06:49:40;;;;;;;6.79;3.21;;;;;;;;;;395629;133;857805;-61
2021/05/06 06:50:44;;;;;;;8.78;3.47;;;;;;;;;;393238;135;864926;-61
2021/05/06 06:51:45;;;;;;;7.78;3.24;;;;;;;;;;396438;133;857624;-61
2021/05/06 06:52:47;;;;;;;7.59;3.17;;;;;;;;;;398616;133;866163;-60
2021/05/06 06:53:50;;;;;;;7.51;3.69;;;;;;;;;;395987;134;860235;-61
2021/05/06 06:54:52;;;;;;;4.12;2.73;;;;;;;;;;393634;133;865193;-61
2021/05/06 06:55:53;;;;;;;5.56;3.34;;;;;;;;;;392649;134;857257;-61
2021/05/06 06:56:55;;;;;;;4.20;3.04;;;;;;;;;;393887;134;866953;-62
2021/05/06 06:58:08;;;;;;;3.65;2.36;;;;;;;;;;393281;133;859188;-61
2021/05/06 06:59:09;;;;;;;4.86;2.49;;;;;;;;;;392464;134;864902;-61
2021/05/06 07:00:12;;;;;;;2.31;1.93;;;;;;;;;;393341;133;857769;-60
2021/05/06 07:01:13;;;;;;;3.96;2.06;;;;;;;;;;384745;135;858665;-61
2021/05/06 07:02:15;;;;;;;2.22;2.02;;;;;;;;;;388846;134;859471;-63
2021/05/06 07:03:17;;;;;;;5.55;1.64;;;;;;;;;;397341;133;859631;-63
2021/05/06 07:04:19;;;;;;;2.65;1.43;;;;;;;;;;396911;133;864827;-63
2021/05/06 07:05:20;;;;;;;5.73;1.95;;;;;;;;;;388553;138;857629;-60
2021/05/06 07:06:23;;;;;;;1.92;1.57;;;;;;;;;;381483;138;858139;-59
2021/05/06 07:07:25;;;;;;;7.20;1.93;;;;;;;;;;392511;137;858632;-62
2021/05/06 07:08:29;;;;;;;2.45;1.60;;;;;;;;;;392515;133;857715;-62
2021/05/06 07:09:30;;;;;;;3.70;1.60;;;;;;;;;;392492;133;857284;-61
2021/05/06 07:10:34;;;;;;;1.36;1.07;;;;;;;;;;392438;136;859233;-64
2021/05/06 07:11:36;;;;;;;2.28;1.24;;;;;;;;;;392368;133;857695;-62
2021/05/06 07:12:37;;;;;;;3.57;0.95;;;;;;;;;;392453;133;864498;-62
2021/05/06 07:13:39;;;;;;;2.72;1.25;;;;;;;;;;392477;137;857222;-62
2021/05/06 07:14:41;;;;;;;2.36;0.96;;;;;;;;;;394539;133;857304;-62
2021/05/06 07:15:50;;;;;;;2.69;0.91;;;;;;;;;;392549;137;857345;-62
2021/05/06 07:16:52;;;;;;;1.19;0.92;;;;;;;;;;392709;133;864860;-61
2021/05/06 07:17:53;;;;;;;1.69;0.86;;;;;;;;;;393447;132;859250;-62
2021/05/06 07:18:58;;;;;;;1.14;1.01;;;;;;;;;;392659;137;863230;-62
2021/05/06 07:20:00;;;;;;;3.49;0.79;;;;;;;;;;392462;133;857214;-61
2021/05/06 07:21:02;;;;;;;2.81;0.85;;;;;;;;;;392615;133;857138;-61
2021/05/06 07:22:03;;;;;;;2.31;0.98;;;;;;;;;;392586;136;857770;-60
2021/05/06 07:23:05;;;;;;;0.61;0.60;;;;;;;;;;392640;133;857272;-62
2021/05/06 07:24:07;;;;;;;2.38;0.82;;;;;;;;;;392689;137;857253;-60
2021/05/06 07:25:11;;;;;;;5.79;0.95;;;;;;;;;;392625;136;858791;-61
2021/05/06 07:26:13;;;;;;;4.53;0.69;;;;;;;;;;394637;133;859614;-61
2021/05/06 07:27:15;;;;;;;4.96;0.76;;;;;;;;;;392634;137;858283;-62
2021/05/06 07:28:17;;;;;;;3.24;0.86;;;;;;;;;;392856;133;863119;-61
2021/05/06 07:29:21;;;;;;;2.69;0.77;;;;;;;;;;394668;133;858342;-60
2021/05/06 07:30:24;;;;;;;2.46;0.50;;;;;;;;;;392266;137;857568;-61
2021/05/06 07:31:26;;;;;;;1.01;0.74;;;;;;;;;;392909;134;860363;-60
2021/05/06 07:32:27;;;;;;;2.68;0.71;;;;;;;;;;396058;133;857448;-60
2021/05/06 07:33:31;;;;;;;1.41;0.99;;;;;;;;;;394400;134;857258;-59
2021/05/06 07:34:33;;;;;;;1.44;0.75;;;;;;;;;;394083;133;857683;-60
2021/05/06 07:35:34;;;;;;;5.31;0.70;;;;;;;;;;392523;137;858904;-61
2021/05/06 07:36:37;;;;;;;3.12;0.65;;;;;;;;;;392373;137;864462;-60
2021/05/06 07:37:39;;;;;;;1.26;0.76;;;;;;;;;;392334;133;857774;-61
2021/05/06 07:38:41;;;;;;;1.12;0.65;;;;;;;;;;392431;137;864904;-62
2021/05/06 07:39:42;;;;;;;0.82;0.53;;;;;;;;;;392532;134;857267;-61
2021/05/06 07:40:45;;;;;;;0.79;0.56;;;;;;;;;;392977;133;857234;-60
2021/05/06 07:41:46;;;;;;;2.02;0.51;;;;;;;;;;395031;134;857201;-61
2021/05/06 07:42:48;;;;;;;0.88;0.46;;;;;;;;;;397186;133;857314;-60
2021/05/06 07:43:49;;;;;;;1.11;0.59;;;;;;;;;;392818;134;857193;-60
2021/05/06 07:44:51;;;;;;;3.47;0.58;;;;;;;;;;392417;137;866725;-60
2021/05/06 07:45:52;;;;;;;0.83;0.50;;;;;;;;;;393300;133;858980;-61
2021/05/06 07:47:08;;;;;;;1.04;0.54;;;;;;;;;;392742;134;857291;-60
2021/05/06 07:47:58;;;;;;;4.64;0.62;;;;;;;;;;389313;137;864851;-61
2021/05/06 07:48:59;;;;;;;1.46;0.68;;;;;;;;;;392271;133;859059;-60
2021/05/06 07:50:03;;;;;;;0.72;0.50;;;;;;;;;;392454;137;864785;-61
2021/05/06 07:51:07;;;;;;;0.67;0.54;;;;;;;;;;393482;134;864990;-61
2021/05/06 07:52:13;;;;;;;1.40;0.63;;;;;;;;;;393588;133;857855;-60
2021/05/06 07:53:14;;;;;;;0.60;0.55;;;;;;;;;;391909;137;862411;-61
2021/05/06 07:54:15;;;;;;;3.61;0.58;;;;;;;;;;394362;133;857430;-60
2021/05/06 07:55:17;;;;;;;1.16;0.60;;;;;;;;;;392438;133;860029;-60
2021/05/06 07:56:19;;;;;;;1.25;0.60;;;;;;;;;;392518;137;857495;-61
2021/05/06 07:57:20;;;;;;;2.10;0.60;;;;;;;;;;394628;133;857768;-60
2021/05/06 07:58:22;;;;;;;0.62;0.53;;;;;;;;;;392970;134;857148;-61
2021/05/06 07:59:24;;;;;;;1.17;0.56;;;;;;;;;;398634;134;857274;-61
2021/05/06 08:00:26;;;;;;;2.66;0.59;;;;;;;;;;392168;133;857179;-62
2021/05/06 08:01:28;;;;;;;2.57;0.60;;;;;;;;;;392409;134;857119;-61
2021/05/06 08:02:30;;;;;;;0.90;0.50;;;;;;;;;;378607;138;864924;-61
2021/05/06 08:03:31;;;;;;;1.33;0.70;;;;;;;;;;381967;137;858918;-61
2021/05/06 08:04:33;;;;;;;1.06;0.60;;;;;;;;;;381667;138;864905;-60
2021/05/06 08:05:35;;;;;;;1.54;0.69;;;;;;;;;;383085;136;864880;-66
2021/05/06 08:06:37;;;;;;;1.41;0.65;;;;;;;;;;383471;138;866590;-61
2021/05/06 08:07:38;;;;;;;1.68;0.58;;;;;;;;;;383597;138;857283;-60
2021/05/06 08:08:40;;;;;;;2.23;0.56;;;;;;;;;;383215;136;859091;-61
2021/05/06 08:09:41;;;;;;;2.24;0.72;;;;;;;;;;383466;138;858022;-60
2021/05/06 08:10:43;;;;;;;1.67;0.67;;;;;;;;;;383313;136;857359;-61
2021/05/06 08:11:45;;;;;;;1.92;0.59;;;;;;;;;;383748;136;866071;-62
2021/05/06 08:12:46;;;;;;;2.87;0.62;;;;;;;;;;382984;140;860159;-62
2021/05/06 08:13:48;;;;;;;1.66;0.59;;;;;;;;;;383647;137;859172;-61
2021/05/06 08:14:52;;;;;;;2.84;0.50;;;;;;;;;;383033;136;859091;-60
2021/05/06 08:15:53;;;;;;;0.93;0.44;;;;;;;;;;382979;140;865390;-60
2021/05/06 08:16:55;;;;;;;0.60;0.51;;;;;;;;;;382928;136;859297;-61
2021/05/06 08:17:57;;;;;;;3.11;0.71;;;;;;;;;;382939;140;857367;-61
2021/05/06 08:18:59;;;;;;;3.19;0.80;;;;;;;;;;383074;138;865001;-61
2021/05/06 08:20:03;;;;;;;1.19;0.80;;;;;;;;;;383280;136;863889;-62
2021/05/06 08:21:04;;;;;;;2.31;0.66;;;;;;;;;;383100;140;856397;-62
2021/05/06 08:22:05;;;;;;;0.98;0.59;;;;;;;;;;384543;136;857333;-64
2021/05/06 08:23:09;;;;;;;1.06;0.69;;;;;;;;;;383182;136;857237;-63
2021/05/06 08:24:11;;;;;;;0.99;0.70;;;;;;;;;;383031;140;857337;-62
2021/05/06 08:25:13;;;;;;;0.69;0.52;;;;;;;;;;384011;136;864835;-62
2021/05/06 08:26:15;;;;;;;0.94;0.59;;;;;;;;;;383933;136;865851;-62
2021/05/06 08:27:17;;;;;;;2.59;0.69;;;;;;;;;;383119;139;857282;-62
2021/05/06 08:28:18;;;;;;;1.46;0.61;;;;;;;;;;382983;137;857409;-63
2021/05/06 08:29:20;;;;;;;0.63;0.56;;;;;;;;;;383102;138;864952;-62
2021/05/06 08:30:23;;;;;;;2.31;0.58;;;;;;;;;;383117;140;857178;-61
2021/05/06 08:31:25;;;;;;;1.35;0.75;;;;;;;;;;384227;136;857250;-63
2021/05/06 08:32:27;;;;;;;2.53;0.72;;;;;;;;;;383274;140;860297;-63
2021/05/06 08:33:29;;;;;;;2.27;0.92;;;;;;;;;;383145;136;864872;-64
2021/05/06 08:34:30;;;;;;;2.41;1.05;;;;;;;;;;383499;136;857220;-63
2021/05/06 08:35:32;;;;;;;1.84;0.77;;;;;;;;;;383293;140;865976;-64
2021/05/06 08:36:34;;;;;;;0.85;0.61;;;;;;;;;;383179;136;859101;-63
2021/05/06 08:37:36;;;;;;;2.34;0.69;;;;;;;;;;385405;138;859154;-64
2021/05/06 08:38:37;;;;;;;2.71;0.75;;;;;;;;;;383365;140;859620;-64
2021/05/06 08:39:39;;;;;;;1.59;0.54;;;;;;;;;;383111;136;864938;-64
2021/05/06 08:40:41;;;;;;;1.49;0.80;;;;;;;;;;383320;140;857213;-63
2021/05/06 08:41:43;;;;;;;1.11;0.70;;;;;;;;;;383466;140;857140;-62
2021/05/06 08:42:45;;;;;;;1.38;0.73;;;;;;;;;;385005;136;857715;-63
2021/05/06 08:43:58;;;;;;;1.31;0.70;;;;;;;;;;384412;137;857715;-63
2021/05/06 08:44:59;;;;;;;2.58;0.67;;;;;;;;;;384091;138;866576;-70
2021/05/06 08:46:01;;;;;;;1.09;0.88;;;;;;;;;;383302;136;857690;-65
2021/05/06 08:47:07;;;;;;;1.36;0.79;;;;;;;;;;383317;140;866170;-69
2021/05/06 08:48:09;;;;;;;1.05;0.78;;;;;;;;;;382970;136;857255;-64
2021/05/06 08:49:10;;;;;;;2.08;0.76;;;;;;;;;;383360;138;859667;-67
2021/05/06 08:50:17;;;;;;;1.39;0.61;;;;;;;;;;383546;137;857442;-69
2021/05/06 08:51:19;;;;;;;1.39;0.77;;;;;;;;;;385265;136;857920;-64
2021/05/06 08:52:21;;;;;;;2.19;0.63;;;;;;;;;;383677;138;859344;-65
2021/05/06 08:53:22;;;;;;;1.13;0.76;;;;;;;;;;383267;138;866884;-67
2021/05/06 08:54:24;;;;;;;1.62;0.71;;;;;;;;;;383203;136;865624;-68
2021/05/06 08:55:25;;;;;;;2.23;0.89;;;;;;;;;;383259;138;865581;-66
2021/05/06 08:56:27;;;;;;;1.79;0.77;;;;;;;;;;383606;136;860200;-68
2021/05/06 08:57:29;;;;;;;0.87;0.74;;;;;;;;;;383280;136;859284;-67
2021/05/06 08:58:31;;;;;;;1.73;0.79;;;;;;;;;;383359;140;857199;-67
2021/05/06 08:59:32;;;;;;;2.69;0.88;;;;;;;;;;385374;136;857229;-68
2021/05/06 09:00:36;;;;;;;0.87;0.75;;;;;;;;;;383132;138;857668;-67
2021/05/06 09:01:37;;;;;;;1.61;0.75;;;;;;;;;;383340;140;859433;-65
2021/05/06 09:02:47;;;;;;;1.86;0.98;;;;;;;;;;383816;136;858002;-65
2021/05/06 09:03:49;;;;;;;2.61;1.14;;;;;;;;;;382257;138;859250;-66
2021/05/06 09:04:50;;;;;;;2.01;0.72;;;;;;;;;;384378;136;859269;-66
2021/05/06 09:06:09;;;;;;;1.90;0.99;;;;;;;;;;383393;138;866110;-66
2021/05/06 09:07:11;;;;;;;1.81;1.17;;;;;;;;;;383199;136;857130;-66
2021/05/06 09:08:15;;;;;;;1.48;0.83;;;;;;;;;;384358;136;857373;-66
2021/05/06 09:09:17;;;;;;;1.55;0.81;;;;;;;;;;380735;140;857472;-67